Terminal Aerodrome Forecast
Issued by NWS La Crosse, WI

Home | Current Version | Previous Version | Text Only | Print | Product List | Glossary On
Versions: 1 2 3 4 5 6 7 8 9 10 11 12 13 14 15 16 17 18 19 20 21 22 23 24 25 26 27 28 29 30 31 32 33 34 35 36 37 38 39
000
FTUS43 KARX 290815 AAB
TAFRST
TAF AMD
KRST 290815Z 2908/3006 16008KT 4SM -SHRA BR SCT006 BKN050
      TEMPO 2908/2912 2SM SHRA BR BKN004
     FM291400 18010KT P6SM SCT050 BKN130
     FM291800 20010KT P6SM BKN070
      TEMPO 2920/2924 3SM TSRA BKN020CB
     FM300100 22005KT 6SM -SHRA BKN015=

USA.gov is the U.S. government's official web portal to all federal, state and local government web resources and services.